sensor_id;sensor_type;location;lat;lon;timestamp;P1;durP1;ratioP1;P2;durP2;ratioP2
70967;SDS011;58629;48.808;8.820;2022-07-23T00:01:27;6.63;;;5.27;;
70967;SDS011;58629;48.808;8.820;2022-07-23T00:03:53;4.50;;;4.10;;
70967;SDS011;58629;48.808;8.820;2022-07-23T00:06:19;4.20;;;3.80;;
70967;SDS011;58629;48.808;8.820;2022-07-23T00:08:45;4.47;;;4.07;;
70967;SDS011;58629;48.808;8.820;2022-07-23T00:11:10;4.53;;;4.10;;
70967;SDS011;58629;48.808;8.820;2022-07-23T00:13:36;5.20;;;4.70;;
70967;SDS011;58629;48.808;8.820;2022-07-23T00:16:02;4.20;;;3.80;;
70967;SDS011;58629;48.808;8.820;2022-07-23T00:18:27;4.17;;;3.77;;
70967;SDS011;58629;48.808;8.820;2022-07-23T00:20:52;6.13;;;4.90;;
70967;SDS011;58629;48.808;8.820;2022-07-23T00:23:18;4.70;;;4.20;;
70967;SDS011;58629;48.808;8.820;2022-07-23T00:25:43;5.57;;;4.40;;
70967;SDS011;58629;48.808;8.820;2022-07-23T00:28:10;5.47;;;4.97;;
70967;SDS011;58629;48.808;8.820;2022-07-23T00:30:36;4.47;;;4.07;;
70967;SDS011;58629;48.808;8.820;2022-07-23T00:33:03;5.00;;;4.50;;
70967;SDS011;58629;48.808;8.820;2022-07-23T00:35:31;6.15;;;5.50;;
70967;SDS011;58629;48.808;8.820;2022-07-23T00:37:59;5.50;;;5.00;;
70967;SDS011;58629;48.808;8.820;2022-07-23T00:40:25;5.20;;;4.70;;
70967;SDS011;58629;48.808;8.820;2022-07-23T00:42:51;5.18;;;4.68;;
70967;SDS011;58629;48.808;8.820;2022-07-23T00:45:17;4.80;;;4.30;;
70967;SDS011;58629;48.808;8.820;2022-07-23T00:47:43;4.20;;;3.80;;
70967;SDS011;58629;48.808;8.820;2022-07-23T00:50:08;3.70;;;3.17;;
70967;SDS011;58629;48.808;8.820;2022-07-23T00:52:34;3.73;;;3.10;;
70967;SDS011;58629;48.808;8.820;2022-07-23T00:55:00;2.90;;;2.70;;
70967;SDS011;58629;48.808;8.820;2022-07-23T00:57:26;2.80;;;2.60;;
70967;SDS011;58629;48.808;8.820;2022-07-23T00:59:52;2.63;;;2.43;;
70967;SDS011;58629;48.808;8.820;2022-07-23T01:02:17;3.67;;;3.37;;
70967;SDS011;58629;48.808;8.820;2022-07-23T01:04:43;3.83;;;3.40;;
70967;SDS011;58629;48.808;8.820;2022-07-23T01:07:08;3.92;;;3.50;;
70967;SDS011;58629;48.808;8.820;2022-07-23T01:09:33;3.80;;;3.30;;
70967;SDS011;58629;48.808;8.820;2022-07-23T01:11:59;3.80;;;3.40;;
70967;SDS011;58629;48.808;8.820;2022-07-23T01:14:25;3.28;;;2.97;;
70967;SDS011;58629;48.808;8.820;2022-07-23T01:16:51;3.00;;;2.70;;
70967;SDS011;58629;48.808;8.820;2022-07-23T01:19:17;4.10;;;3.70;;
70967;SDS011;58629;48.808;8.820;2022-07-23T01:21:47;5.80;;;5.20;;
70967;SDS011;58629;48.808;8.820;2022-07-23T01:24:14;6.35;;;5.40;;
70967;SDS011;58629;48.808;8.820;2022-07-23T01:26:41;5.70;;;5.10;;
70967;SDS011;58629;48.808;8.820;2022-07-23T01:29:09;5.70;;;5.10;;
70967;SDS011;58629;48.808;8.820;2022-07-23T01:31:35;4.75;;;4.35;;
70967;SDS011;58629;48.808;8.820;2022-07-23T01:34:01;5.23;;;4.80;;
70967;SDS011;58629;48.808;8.820;2022-07-23T01:36:26;5.10;;;4.60;;
70967;SDS011;58629;48.808;8.820;2022-07-23T01:38:52;6.83;;;5.83;;
70967;SDS011;58629;48.808;8.820;2022-07-23T01:41:17;5.90;;;5.30;;
70967;SDS011;58629;48.808;8.820;2022-07-23T01:43:42;5.87;;;4.80;;
70967;SDS011;58629;48.808;8.820;2022-07-23T01:46:08;4.55;;;4.15;;
70967;SDS011;58629;48.808;8.820;2022-07-23T01:48:33;5.10;;;4.60;;
70967;SDS011;58629;48.808;8.820;2022-07-23T01:51:29;7.57;;;6.50;;
70967;SDS011;58629;48.808;8.820;2022-07-23T01:54:23;7.03;;;6.32;;
70967;SDS011;58629;48.808;8.820;2022-07-23T01:56:48;6.87;;;5.50;;
70967;SDS011;58629;48.808;8.820;2022-07-23T01:59:14;5.57;;;4.97;;
70967;SDS011;58629;48.808;8.820;2022-07-23T02:01:39;5.07;;;4.53;;
70967;SDS011;58629;48.808;8.820;2022-07-23T02:04:04;4.70;;;4.00;;
70967;SDS011;58629;48.808;8.820;2022-07-23T02:06:30;4.47;;;4.07;;
70967;SDS011;58629;48.808;8.820;2022-07-23T02:08:55;5.00;;;4.50;;
70967;SDS011;58629;48.808;8.820;2022-07-23T02:11:20;4.60;;;4.20;;
70967;SDS011;58629;48.808;8.820;2022-07-23T02:13:45;4.63;;;4.23;;
70967;SDS011;58629;48.808;8.820;2022-07-23T02:16:11;5.13;;;4.63;;
70967;SDS011;58629;48.808;8.820;2022-07-23T02:18:36;5.57;;;5.07;;
70967;SDS011;58629;48.808;8.820;2022-07-23T02:21:01;5.00;;;4.50;;
70967;SDS011;58629;48.808;8.820;2022-07-23T02:23:27;4.43;;;4.03;;
70967;SDS011;58629;48.808;8.820;2022-07-23T02:25:52;4.27;;;3.77;;
70967;SDS011;58629;48.808;8.820;2022-07-23T02:28:17;5.37;;;4.87;;
70967;SDS011;58629;48.808;8.820;2022-07-23T02:30:43;6.27;;;4.90;;
70967;SDS011;58629;48.808;8.820;2022-07-23T02:33:08;5.30;;;4.67;;
70967;SDS011;58629;48.808;8.820;2022-07-23T02:35:33;6.43;;;5.60;;
70967;SDS011;58629;48.808;8.820;2022-07-23T02:37:59;6.00;;;5.17;;
70967;SDS011;58629;48.808;8.820;2022-07-23T02:40:24;5.50;;;4.77;;
70967;SDS011;58629;48.808;8.820;2022-07-23T02:42:49;5.57;;;4.97;;
70967;SDS011;58629;48.808;8.820;2022-07-23T02:45:14;6.03;;;5.20;;
70967;SDS011;58629;48.808;8.820;2022-07-23T02:47:40;6.17;;;5.00;;
70967;SDS011;58629;48.808;8.820;2022-07-23T02:50:05;5.87;;;5.27;;
70967;SDS011;58629;48.808;8.820;2022-07-23T02:52:32;5.45;;;4.90;;
70967;SDS011;58629;48.808;8.820;2022-07-23T02:54:57;5.33;;;4.60;;
70967;SDS011;58629;48.808;8.820;2022-07-23T02:57:22;5.90;;;5.20;;
70967;SDS011;58629;48.808;8.820;2022-07-23T02:59:48;6.03;;;5.10;;
70967;SDS011;58629;48.808;8.820;2022-07-23T03:02:13;6.80;;;5.13;;
70967;SDS011;58629;48.808;8.820;2022-07-23T03:04:38;5.53;;;4.93;;
70967;SDS011;58629;48.808;8.820;2022-07-23T03:07:06;5.00;;;4.50;;
70967;SDS011;58629;48.808;8.820;2022-07-23T03:09:31;5.43;;;4.73;;
70967;SDS011;58629;48.808;8.820;2022-07-23T03:11:56;6.77;;;5.80;;
70967;SDS011;58629;48.808;8.820;2022-07-23T03:14:22;6.10;;;5.50;;
70967;SDS011;58629;48.808;8.820;2022-07-23T03:16:47;5.10;;;4.60;;
70967;SDS011;58629;48.808;8.820;2022-07-23T03:19:14;5.50;;;4.90;;
70967;SDS011;58629;48.808;8.820;2022-07-23T03:21:39;5.70;;;4.97;;
70967;SDS011;58629;48.808;8.820;2022-07-23T03:24:07;5.38;;;4.88;;
70967;SDS011;58629;48.808;8.820;2022-07-23T03:26:34;5.50;;;5.00;;
70967;SDS011;58629;48.808;8.820;2022-07-23T03:28:59;5.90;;;4.90;;
70967;SDS011;58629;48.808;8.820;2022-07-23T03:31:26;5.03;;;4.40;;
70967;SDS011;58629;48.808;8.820;2022-07-23T03:33:51;4.60;;;4.20;;
70967;SDS011;58629;48.808;8.820;2022-07-23T03:36:17;4.37;;;3.97;;
70967;SDS011;58629;48.808;8.820;2022-07-23T03:38:42;6.00;;;5.20;;
70967;SDS011;58629;48.808;8.820;2022-07-23T03:41:07;6.63;;;4.80;;
70967;SDS011;58629;48.808;8.820;2022-07-23T03:43:33;5.60;;;5.03;;
70967;SDS011;58629;48.808;8.820;2022-07-23T03:45:58;4.60;;;4.20;;
70967;SDS011;58629;48.808;8.820;2022-07-23T03:48:23;4.07;;;3.63;;
70967;SDS011;58629;48.808;8.820;2022-07-23T03:50:49;3.70;;;3.30;;
70967;SDS011;58629;48.808;8.820;2022-07-23T03:53:14;4.00;;;3.60;;
70967;SDS011;58629;48.808;8.820;2022-07-23T03:55:40;4.37;;;3.97;;
70967;SDS011;58629;48.808;8.820;2022-07-23T03:58:05;4.70;;;3.63;;
70967;SDS011;58629;48.808;8.820;2022-07-23T04:00:30;4.90;;;4.23;;
70967;SDS011;58629;48.808;8.820;2022-07-23T04:02:56;4.70;;;4.30;;
70967;SDS011;58629;48.808;8.820;2022-07-23T04:05:21;4.67;;;4.03;;
70967;SDS011;58629;48.808;8.820;2022-07-23T04:07:46;4.50;;;4.10;;
70967;SDS011;58629;48.808;8.820;2022-07-23T04:10:12;3.73;;;3.33;;
70967;SDS011;58629;48.808;8.820;2022-07-23T04:12:37;5.17;;;4.37;;
70967;SDS011;58629;48.808;8.820;2022-07-23T04:15:02;3.40;;;3.10;;
70967;SDS011;58629;48.808;8.820;2022-07-23T04:17:28;4.07;;;3.20;;
70967;SDS011;58629;48.808;8.820;2022-07-23T04:19:54;3.00;;;2.70;;
70967;SDS011;58629;48.808;8.820;2022-07-23T04:22:19;4.07;;;3.10;;
70967;SDS011;58629;48.808;8.820;2022-07-23T04:24:44;4.03;;;3.63;;
70967;SDS011;58629;48.808;8.820;2022-07-23T04:27:10;3.70;;;3.40;;
70967;SDS011;58629;48.808;8.820;2022-07-23T04:29:35;3.27;;;2.97;;
70967;SDS011;58629;48.808;8.820;2022-07-23T04:32:00;3.33;;;3.03;;
70967;SDS011;58629;48.808;8.820;2022-07-23T04:34:26;4.03;;;3.63;;
70967;SDS011;58629;48.808;8.820;2022-07-23T04:36:52;5.60;;;4.83;;
70967;SDS011;58629;48.808;8.820;2022-07-23T04:39:18;5.53;;;4.88;;
70967;SDS011;58629;48.808;8.820;2022-07-23T04:41:43;6.83;;;5.40;;
70967;SDS011;58629;48.808;8.820;2022-07-23T04:44:09;6.63;;;5.33;;
70967;SDS011;58629;48.808;8.820;2022-07-23T04:46:34;7.10;;;5.23;;
70967;SDS011;58629;48.808;8.820;2022-07-23T04:48:59;5.40;;;4.90;;
70967;SDS011;58629;48.808;8.820;2022-07-23T04:51:25;4.77;;;4.27;;
70967;SDS011;58629;48.808;8.820;2022-07-23T04:53:50;4.37;;;3.97;;
70967;SDS011;58629;48.808;8.820;2022-07-23T04:56:16;5.13;;;3.90;;
70967;SDS011;58629;48.808;8.820;2022-07-23T04:58:41;4.77;;;3.80;;
70967;SDS011;58629;48.808;8.820;2022-07-23T05:01:07;4.10;;;3.70;;
70967;SDS011;58629;48.808;8.820;2022-07-23T05:03:32;3.97;;;3.50;;
70967;SDS011;58629;48.808;8.820;2022-07-23T05:05:57;3.70;;;3.20;;
70967;SDS011;58629;48.808;8.820;2022-07-23T05:08:23;3.30;;;3.00;;
70967;SDS011;58629;48.808;8.820;2022-07-23T05:10:48;3.00;;;2.70;;
70967;SDS011;58629;48.808;8.820;2022-07-23T05:13:14;3.80;;;3.50;;
70967;SDS011;58629;48.808;8.820;2022-07-23T05:15:40;3.58;;;3.25;;
70967;SDS011;58629;48.808;8.820;2022-07-23T05:18:06;3.50;;;3.20;;
70967;SDS011;58629;48.808;8.820;2022-07-23T05:20:31;3.20;;;2.90;;
70967;SDS011;58629;48.808;8.820;2022-07-23T05:22:56;3.20;;;2.90;;
70967;SDS011;58629;48.808;8.820;2022-07-23T05:25:21;3.20;;;2.90;;
70967;SDS011;58629;48.808;8.820;2022-07-23T05:27:47;2.70;;;2.50;;
70967;SDS011;58629;48.808;8.820;2022-07-23T05:30:12;3.30;;;2.73;;
70967;SDS011;58629;48.808;8.820;2022-07-23T05:32:37;3.30;;;3.00;;
70967;SDS011;58629;48.808;8.820;2022-07-23T05:35:06;3.80;;;3.40;;
70967;SDS011;58629;48.808;8.820;2022-07-23T05:37:32;5.07;;;4.45;;
70967;SDS011;58629;48.808;8.820;2022-07-23T05:40:04;6.07;;;5.33;;
70967;SDS011;58629;48.808;8.820;2022-07-23T05:42:33;5.43;;;4.93;;
70967;SDS011;58629;48.808;8.820;2022-07-23T05:44:59;6.80;;;4.90;;
70967;SDS011;58629;48.808;8.820;2022-07-23T05:47:24;7.47;;;5.50;;
70967;SDS011;58629;48.808;8.820;2022-07-23T05:49:49;6.20;;;5.50;;
70967;SDS011;58629;48.808;8.820;2022-07-23T05:52:14;7.55;;;5.80;;
70967;SDS011;58629;48.808;8.820;2022-07-23T05:54:40;5.73;;;4.40;;
70967;SDS011;58629;48.808;8.820;2022-07-23T05:57:05;5.20;;;4.70;;
70967;SDS011;58629;48.808;8.820;2022-07-23T05:59:30;5.13;;;4.50;;
70967;SDS011;58629;48.808;8.820;2022-07-23T06:01:56;5.10;;;4.30;;
70967;SDS011;58629;48.808;8.820;2022-07-23T06:04:21;4.30;;;3.90;;
70967;SDS011;58629;48.808;8.820;2022-07-23T06:06:46;3.80;;;3.40;;
70967;SDS011;58629;48.808;8.820;2022-07-23T06:09:12;3.83;;;3.43;;
70967;SDS011;58629;48.808;8.820;2022-07-23T06:11:38;3.70;;;3.22;;
70967;SDS011;58629;48.808;8.820;2022-07-23T06:14:04;3.70;;;3.40;;
70967;SDS011;58629;48.808;8.820;2022-07-23T06:16:29;4.23;;;3.80;;
70967;SDS011;58629;48.808;8.820;2022-07-23T06:18:55;3.20;;;2.90;;
70967;SDS011;58629;48.808;8.820;2022-07-23T06:21:20;4.07;;;3.70;;
70967;SDS011;58629;48.808;8.820;2022-07-23T06:23:45;5.87;;;5.23;;
70967;SDS011;58629;48.808;8.820;2022-07-23T06:26:10;5.60;;;5.10;;
70967;SDS011;58629;48.808;8.820;2022-07-23T06:28:36;5.30;;;4.80;;
70967;SDS011;58629;48.808;8.820;2022-07-23T06:31:01;4.83;;;4.40;;
70967;SDS011;58629;48.808;8.820;2022-07-23T06:33:26;4.60;;;3.95;;
70967;SDS011;58629;48.808;8.820;2022-07-23T06:35:52;7.07;;;5.40;;
70967;SDS011;58629;48.808;8.820;2022-07-23T06:38:17;6.27;;;5.67;;
70967;SDS011;58629;48.808;8.820;2022-07-23T06:40:42;6.20;;;5.60;;
70967;SDS011;58629;48.808;8.820;2022-07-23T06:43:08;7.53;;;5.90;;
70967;SDS011;58629;48.808;8.820;2022-07-23T06:45:34;10.33;;;6.30;;
70967;SDS011;58629;48.808;8.820;2022-07-23T06:47:59;10.03;;;6.20;;
70967;SDS011;58629;48.808;8.820;2022-07-23T06:50:27;10.15;;;6.07;;
70967;SDS011;58629;48.808;8.820;2022-07-23T06:52:52;8.50;;;6.40;;
70967;SDS011;58629;48.808;8.820;2022-07-23T06:55:17;6.67;;;5.77;;
70967;SDS011;58629;48.808;8.820;2022-07-23T06:57:43;5.77;;;5.00;;
70967;SDS011;58629;48.808;8.820;2022-07-23T07:00:08;7.45;;;6.53;;
70967;SDS011;58629;48.808;8.820;2022-07-23T07:02:34;7.80;;;5.80;;
70967;SDS011;58629;48.808;8.820;2022-07-23T07:04:59;8.73;;;6.80;;
70967;SDS011;58629;48.808;8.820;2022-07-23T07:07:24;7.40;;;6.33;;
70967;SDS011;58629;48.808;8.820;2022-07-23T07:09:50;7.13;;;6.03;;
70967;SDS011;58629;48.808;8.820;2022-07-23T07:12:15;8.70;;;6.50;;
70967;SDS011;58629;48.808;8.820;2022-07-23T07:14:40;7.60;;;6.80;;
70967;SDS011;58629;48.808;8.820;2022-07-23T07:17:06;9.07;;;6.00;;
70967;SDS011;58629;48.808;8.820;2022-07-23T07:19:31;6.00;;;4.97;;
70967;SDS011;58629;48.808;8.820;2022-07-23T07:21:56;5.20;;;4.63;;
70967;SDS011;58629;48.808;8.820;2022-07-23T07:24:22;7.33;;;5.57;;
70967;SDS011;58629;48.808;8.820;2022-07-23T07:26:47;6.03;;;4.87;;
70967;SDS011;58629;48.808;8.820;2022-07-23T07:29:12;4.87;;;4.37;;
70967;SDS011;58629;48.808;8.820;2022-07-23T07:31:38;5.63;;;5.03;;
70967;SDS011;58629;48.808;8.820;2022-07-23T07:34:03;8.37;;;6.93;;
70967;SDS011;58629;48.808;8.820;2022-07-23T07:36:28;6.20;;;4.90;;
70967;SDS011;58629;48.808;8.820;2022-07-23T07:38:53;4.87;;;4.37;;
70967;SDS011;58629;48.808;8.820;2022-07-23T07:41:19;5.90;;;4.70;;
70967;SDS011;58629;48.808;8.820;2022-07-23T07:43:47;4.50;;;4.10;;
70967;SDS011;58629;48.808;8.820;2022-07-23T07:46:13;4.33;;;3.80;;
70967;SDS011;58629;48.808;8.820;2022-07-23T07:48:38;4.97;;;4.50;;
70967;SDS011;58629;48.808;8.820;2022-07-23T07:51:04;4.30;;;3.90;;
70967;SDS011;58629;48.808;8.820;2022-07-23T07:53:29;4.18;;;3.50;;
70967;SDS011;58629;48.808;8.820;2022-07-23T07:55:54;4.13;;;3.70;;
70967;SDS011;58629;48.808;8.820;2022-07-23T07:58:20;4.10;;;3.70;;
70967;SDS011;58629;48.808;8.820;2022-07-23T08:00:45;4.60;;;4.10;;
70967;SDS011;58629;48.808;8.820;2022-07-23T08:03:11;3.97;;;3.47;;
70967;SDS011;58629;48.808;8.820;2022-07-23T08:05:36;4.45;;;3.92;;
70967;SDS011;58629;48.808;8.820;2022-07-23T08:08:01;4.23;;;3.83;;
70967;SDS011;58629;48.808;8.820;2022-07-23T08:10:27;3.90;;;3.50;;
70967;SDS011;58629;48.808;8.820;2022-07-23T08:12:54;5.03;;;4.50;;
70967;SDS011;58629;48.808;8.820;2022-07-23T08:15:24;5.15;;;4.45;;
70967;SDS011;58629;48.808;8.820;2022-07-23T08:17:51;4.43;;;4.03;;
70967;SDS011;58629;48.808;8.820;2022-07-23T08:20:18;4.20;;;3.80;;
70967;SDS011;58629;48.808;8.820;2022-07-23T08:22:45;3.90;;;3.33;;
70967;SDS011;58629;48.808;8.820;2022-07-23T08:25:11;5.68;;;4.38;;
70967;SDS011;58629;48.808;8.820;2022-07-23T08:27:36;6.63;;;5.60;;
70967;SDS011;58629;48.808;8.820;2022-07-23T08:30:02;3.73;;;3.43;;
70967;SDS011;58629;48.808;8.820;2022-07-23T08:32:27;4.50;;;4.10;;
70967;SDS011;58629;48.808;8.820;2022-07-23T08:34:53;3.90;;;3.50;;
70967;SDS011;58629;48.808;8.820;2022-07-23T08:37:18;5.87;;;5.27;;
70967;SDS011;58629;48.808;8.820;2022-07-23T08:39:43;5.67;;;5.07;;
70967;SDS011;58629;48.808;8.820;2022-07-23T08:42:08;5.87;;;4.90;;
70967;SDS011;58629;48.808;8.820;2022-07-23T08:44:34;4.50;;;4.07;;
70967;SDS011;58629;48.808;8.820;2022-07-23T08:47:00;4.10;;;3.75;;
70967;SDS011;58629;48.808;8.820;2022-07-23T08:49:26;3.93;;;3.57;;
70967;SDS011;58629;48.808;8.820;2022-07-23T08:51:53;4.25;;;3.88;;
70967;SDS011;58629;48.808;8.820;2022-07-23T08:54:20;3.55;;;3.25;;
70967;SDS011;58629;48.808;8.820;2022-07-23T08:56:46;3.80;;;3.40;;
70967;SDS011;58629;48.808;8.820;2022-07-23T08:59:13;5.20;;;4.70;;
70967;SDS011;58629;48.808;8.820;2022-07-23T09:01:38;4.57;;;4.17;;
70967;SDS011;58629;48.808;8.820;2022-07-23T09:04:04;4.50;;;4.10;;
70967;SDS011;58629;48.808;8.820;2022-07-23T09:06:29;6.97;;;5.77;;
70967;SDS011;58629;48.808;8.820;2022-07-23T09:08:54;7.90;;;5.73;;
70967;SDS011;58629;48.808;8.820;2022-07-23T09:11:21;7.43;;;6.15;;
70967;SDS011;58629;48.808;8.820;2022-07-23T09:13:47;6.20;;;5.60;;
70967;SDS011;58629;48.808;8.820;2022-07-23T09:16:14;6.10;;;5.50;;
70967;SDS011;58629;48.808;8.820;2022-07-23T09:18:49;6.50;;;5.60;;
70967;SDS011;58629;48.808;8.820;2022-07-23T09:21:16;7.20;;;5.90;;
70967;SDS011;58629;48.808;8.820;2022-07-23T09:26:28;5.68;;;5.18;;
70967;SDS011;58629;48.808;8.820;2022-07-23T09:34:09;7.53;;;5.60;;
70967;SDS011;58629;48.808;8.820;2022-07-23T09:36:39;6.50;;;5.90;;
70967;SDS011;58629;48.808;8.820;2022-07-23T09:39:05;6.20;;;5.60;;
70967;SDS011;58629;48.808;8.820;2022-07-23T09:41:35;6.57;;;5.95;;
70967;SDS011;58629;48.808;8.820;2022-07-23T09:44:09;5.88;;;5.38;;
70967;SDS011;58629;48.808;8.820;2022-07-23T09:46:36;6.20;;;5.60;;
70967;SDS011;58629;48.808;8.820;2022-07-23T09:49:37;6.50;;;5.80;;
70967;SDS011;58629;48.808;8.820;2022-07-23T09:51:57;6.28;;;5.55;;
70967;SDS011;58629;48.808;8.820;2022-07-23T09:57:05;6.20;;;5.60;;
70967;SDS011;58629;48.808;8.820;2022-07-23T09:59:35;6.07;;;5.50;;
70967;SDS011;58629;48.808;8.820;2022-07-23T10:02:03;6.30;;;5.70;;
70967;SDS011;58629;48.808;8.820;2022-07-23T10:04:30;5.57;;;5.07;;
70967;SDS011;58629;48.808;8.820;2022-07-23T10:06:57;6.10;;;5.50;;
70967;SDS011;58629;48.808;8.820;2022-07-23T10:09:29;6.03;;;5.43;;
70967;SDS011;58629;48.808;8.820;2022-07-23T10:11:58;5.73;;;5.13;;
70967;SDS011;58629;48.808;8.820;2022-07-23T10:14:42;6.22;;;5.63;;
70967;SDS011;58629;48.808;8.820;2022-07-23T10:17:07;6.60;;;6.00;;
70967;SDS011;58629;48.808;8.820;2022-07-23T10:19:33;6.73;;;5.50;;
70967;SDS011;58629;48.808;8.820;2022-07-23T10:22:03;6.75;;;5.88;;
70967;SDS011;58629;48.808;8.820;2022-07-23T10:27:34;7.35;;;5.70;;
70967;SDS011;58629;48.808;8.820;2022-07-23T10:32:37;6.53;;;5.93;;
70967;SDS011;58629;48.808;8.820;2022-07-23T10:37:42;7.30;;;5.90;;
70967;SDS011;58629;48.808;8.820;2022-07-23T10:40:19;6.30;;;5.70;;
70967;SDS011;58629;48.808;8.820;2022-07-23T10:42:47;6.47;;;5.88;;
70967;SDS011;58629;48.808;8.820;2022-07-23T10:45:29;6.93;;;6.03;;
70967;SDS011;58629;48.808;8.820;2022-07-23T10:51:05;6.70;;;6.05;;
70967;SDS011;58629;48.808;8.820;2022-07-23T10:59:16;6.00;;;5.40;;
70967;SDS011;58629;48.808;8.820;2022-07-23T11:01:41;6.43;;;5.47;;
70967;SDS011;58629;48.808;8.820;2022-07-23T11:04:07;5.70;;;5.20;;
70967;SDS011;58629;48.808;8.820;2022-07-23T11:09:30;5.97;;;5.47;;
70967;SDS011;58629;48.808;8.820;2022-07-23T11:17:58;5.68;;;5.18;;
70967;SDS011;58629;48.808;8.820;2022-07-23T11:20:25;6.35;;;5.63;;
70967;SDS011;58629;48.808;8.820;2022-07-23T11:22:52;6.70;;;6.10;;
70967;SDS011;58629;48.808;8.820;2022-07-23T11:27:48;7.20;;;6.50;;
70967;SDS011;58629;48.808;8.820;2022-07-23T11:33:37;7.43;;;6.25;;
70967;SDS011;58629;48.808;8.820;2022-07-23T11:35:41;7.07;;;6.37;;
70967;SDS011;58629;48.808;8.820;2022-07-23T11:40:41;6.82;;;6.22;;
70967;SDS011;58629;48.808;8.820;2022-07-23T11:43:09;6.82;;;6.10;;
70967;SDS011;58629;48.808;8.820;2022-07-23T11:50:49;7.90;;;6.22;;
70967;SDS011;58629;48.808;8.820;2022-07-23T11:53:48;6.60;;;6.00;;
70967;SDS011;58629;48.808;8.820;2022-07-23T11:56:10;6.93;;;6.22;;
70967;SDS011;58629;48.808;8.820;2022-07-23T11:58:36;7.00;;;6.30;;
70967;SDS011;58629;48.808;8.820;2022-07-23T12:01:03;6.63;;;6.03;;
70967;SDS011;58629;48.808;8.820;2022-07-23T12:03:29;6.95;;;6.25;;
70967;SDS011;58629;48.808;8.820;2022-07-23T12:05:58;6.60;;;5.93;;
70967;SDS011;58629;48.808;8.820;2022-07-23T12:08:24;7.78;;;6.50;;
70967;SDS011;58629;48.808;8.820;2022-07-23T12:10:49;6.90;;;6.30;;
70967;SDS011;58629;48.808;8.820;2022-07-23T12:13:16;7.10;;;6.40;;
70967;SDS011;58629;48.808;8.820;2022-07-23T12:15:43;7.05;;;6.45;;
70967;SDS011;58629;48.808;8.820;2022-07-23T12:18:12;6.50;;;5.82;;
70967;SDS011;58629;48.808;8.820;2022-07-23T12:20:42;6.93;;;6.32;;
70967;SDS011;58629;48.808;8.820;2022-07-23T12:23:10;7.00;;;6.27;;
70967;SDS011;58629;48.808;8.820;2022-07-23T12:25:40;6.53;;;5.80;;
70967;SDS011;58629;48.808;8.820;2022-07-23T12:28:09;6.78;;;6.18;;
70967;SDS011;58629;48.808;8.820;2022-07-23T12:30:40;6.45;;;5.85;;
70967;SDS011;58629;48.808;8.820;2022-07-23T12:35:52;6.80;;;6.10;;
70967;SDS011;58629;48.808;8.820;2022-07-23T12:38:20;7.60;;;6.30;;
70967;SDS011;58629;48.808;8.820;2022-07-23T12:40:48;6.95;;;6.28;;
70967;SDS011;58629;48.808;8.820;2022-07-23T12:43:22;8.05;;;6.35;;
70967;SDS011;58629;48.808;8.820;2022-07-23T12:46:04;6.90;;;6.20;;
70967;SDS011;58629;48.808;8.820;2022-07-23T12:48:33;7.27;;;6.60;;
70967;SDS011;58629;48.808;8.820;2022-07-23T12:51:03;7.78;;;6.65;;
70967;SDS011;58629;48.808;8.820;2022-07-23T12:53:31;6.80;;;6.20;;
70967;SDS011;58629;48.808;8.820;2022-07-23T12:56:08;7.57;;;6.38;;
70967;SDS011;58629;48.808;8.820;2022-07-23T12:58:46;7.45;;;6.70;;
70967;SDS011;58629;48.808;8.820;2022-07-23T13:01:23;7.00;;;6.30;;
70967;SDS011;58629;48.808;8.820;2022-07-23T13:08:59;7.25;;;6.18;;
70967;SDS011;58629;48.808;8.820;2022-07-23T13:11:26;7.00;;;6.07;;
70967;SDS011;58629;48.808;8.820;2022-07-23T13:13:51;7.10;;;6.40;;
70967;SDS011;58629;48.808;8.820;2022-07-23T13:16:17;7.07;;;6.40;;
70967;SDS011;58629;48.808;8.820;2022-07-23T13:18:42;7.50;;;6.30;;
70967;SDS011;58629;48.808;8.820;2022-07-23T13:21:08;7.40;;;6.70;;
70967;SDS011;58629;48.808;8.820;2022-07-23T13:23:34;7.63;;;6.60;;
70967;SDS011;58629;48.808;8.820;2022-07-23T13:25:59;7.60;;;6.80;;
70967;SDS011;58629;48.808;8.820;2022-07-23T13:28:25;7.77;;;7.00;;
70967;SDS011;58629;48.808;8.820;2022-07-23T13:30:50;7.30;;;6.60;;
70967;SDS011;58629;48.808;8.820;2022-07-23T13:33:17;7.20;;;6.50;;
70967;SDS011;58629;48.808;8.820;2022-07-23T13:35:44;7.80;;;7.00;;
70967;SDS011;58629;48.808;8.820;2022-07-23T13:38:10;7.40;;;6.70;;
70967;SDS011;58629;48.808;8.820;2022-07-23T13:40:36;7.03;;;6.33;;
70967;SDS011;58629;48.808;8.820;2022-07-23T13:43:04;8.65;;;6.70;;
70967;SDS011;58629;48.808;8.820;2022-07-23T13:45:31;7.25;;;6.65;;
70967;SDS011;58629;48.808;8.820;2022-07-23T13:47:57;7.22;;;6.63;;
70967;SDS011;58629;48.808;8.820;2022-07-23T13:50:22;7.13;;;6.43;;
70967;SDS011;58629;48.808;8.820;2022-07-23T13:52:48;7.80;;;7.00;;
70967;SDS011;58629;48.808;8.820;2022-07-23T13:55:14;7.97;;;7.00;;
70967;SDS011;58629;48.808;8.820;2022-07-23T13:57:39;7.20;;;6.60;;
70967;SDS011;58629;48.808;8.820;2022-07-23T14:00:05;7.80;;;7.10;;
70967;SDS011;58629;48.808;8.820;2022-07-23T14:02:33;7.60;;;6.90;;
70967;SDS011;58629;48.808;8.820;2022-07-23T14:04:59;7.10;;;6.40;;
70967;SDS011;58629;48.808;8.820;2022-07-23T14:07:24;7.40;;;6.60;;
70967;SDS011;58629;48.808;8.820;2022-07-23T14:09:50;7.70;;;6.90;;
70967;SDS011;58629;48.808;8.820;2022-07-23T14:12:15;6.97;;;6.30;;
70967;SDS011;58629;48.808;8.820;2022-07-23T14:14:40;7.90;;;7.20;;
70967;SDS011;58629;48.808;8.820;2022-07-23T14:17:08;7.40;;;6.70;;
70967;SDS011;58629;48.808;8.820;2022-07-23T14:19:33;7.47;;;6.72;;
70967;SDS011;58629;48.808;8.820;2022-07-23T14:21:59;7.07;;;6.47;;
70967;SDS011;58629;48.808;8.820;2022-07-23T14:24:24;7.63;;;6.90;;
70967;SDS011;58629;48.808;8.820;2022-07-23T14:26:50;7.53;;;6.80;;
70967;SDS011;58629;48.808;8.820;2022-07-23T14:29:15;7.40;;;6.70;;
70967;SDS011;58629;48.808;8.820;2022-07-23T14:31:40;7.73;;;7.00;;
70967;SDS011;58629;48.808;8.820;2022-07-23T14:34:06;7.17;;;6.47;;
70967;SDS011;58629;48.808;8.820;2022-07-23T14:36:31;8.20;;;7.27;;
70967;SDS011;58629;48.808;8.820;2022-07-23T14:38:56;7.00;;;6.30;;
70967;SDS011;58629;48.808;8.820;2022-07-23T14:41:21;7.53;;;6.83;;
70967;SDS011;58629;48.808;8.820;2022-07-23T14:43:47;7.07;;;6.38;;
70967;SDS011;58629;48.808;8.820;2022-07-23T14:46:12;7.97;;;7.17;;
70967;SDS011;58629;48.808;8.820;2022-07-23T14:48:38;7.90;;;7.20;;
70967;SDS011;58629;48.808;8.820;2022-07-23T14:51:04;8.05;;;7.22;;
70967;SDS011;58629;48.808;8.820;2022-07-23T14:53:30;7.83;;;7.13;;
70967;SDS011;58629;48.808;8.820;2022-07-23T14:55:55;7.82;;;7.10;;
70967;SDS011;58629;48.808;8.820;2022-07-23T14:58:22;7.67;;;6.97;;
70967;SDS011;58629;48.808;8.820;2022-07-23T15:00:51;7.40;;;6.70;;
70967;SDS011;58629;48.808;8.820;2022-07-23T15:03:18;8.23;;;7.43;;
70967;SDS011;58629;48.808;8.820;2022-07-23T15:05:43;8.27;;;7.50;;
70967;SDS011;58629;48.808;8.820;2022-07-23T15:08:09;8.90;;;8.00;;
70967;SDS011;58629;48.808;8.820;2022-07-23T15:10:34;8.23;;;7.43;;
70967;SDS011;58629;48.808;8.820;2022-07-23T15:13:00;7.70;;;7.00;;
70967;SDS011;58629;48.808;8.820;2022-07-23T15:15:25;6.80;;;6.20;;
70967;SDS011;58629;48.808;8.820;2022-07-23T15:17:50;7.90;;;7.10;;
70967;SDS011;58629;48.808;8.820;2022-07-23T15:20:15;7.90;;;7.13;;
70967;SDS011;58629;48.808;8.820;2022-07-23T15:22:41;8.27;;;7.50;;
70967;SDS011;58629;48.808;8.820;2022-07-23T15:25:07;8.93;;;7.80;;
70967;SDS011;58629;48.808;8.820;2022-07-23T15:27:32;8.13;;;7.33;;
70967;SDS011;58629;48.808;8.820;2022-07-23T15:29:57;8.83;;;7.93;;
70967;SDS011;58629;48.808;8.820;2022-07-23T15:32:23;7.57;;;6.87;;
70967;SDS011;58629;48.808;8.820;2022-07-23T15:34:51;7.60;;;7.00;;
70967;SDS011;58629;48.808;8.820;2022-07-23T15:37:17;8.00;;;7.18;;
70967;SDS011;58629;48.808;8.820;2022-07-23T15:39:42;8.43;;;7.60;;
70967;SDS011;58629;48.808;8.820;2022-07-23T15:42:07;8.77;;;7.70;;